Pinconning, Michigan
Current Conditions -  °F | °C
As of 5:34 PM on Friday 19 Dec 2014 (Local Time) from KIKW Reporting Station
Clear Clear  
Wind Chill: 28°   Ceiling: Unl
Heat Index: 28°   Visibility: 10mi
Dew Point: 18°   Wind: 0mph
Humidity: 67%   Direction: NA
Pressure: 30.27"   Gusts: NA
Location:  43.85°N, 83.96°W
Report Text: KIKW 192234Z AUTO 00000KT 10SM CLR M02/M08 A3027 RMK AO2 T10231076
Loading
Personal Weather Stations






























Interactive Weather Map New forecast layout! Learn more

10-Day Weather Forecast

Advertisements
Track Severe Weather on mobile